createdAt,value
2018-12-04T00:03:57.714Z,99209.69
2018-12-04T00:08:18.271Z,99213.45
2018-12-04T00:12:35.711Z,99225.36
2018-12-04T00:17:01.538Z,99220.39
2018-12-04T00:21:13.794Z,99214.09
2018-12-04T00:25:30.712Z,99230.16
2018-12-04T00:30:06.037Z,99243.42
2018-12-04T00:34:23.903Z,99252.84
2018-12-04T00:39:01.873Z,99251.64
2018-12-04T00:43:27.773Z,99255.57
2018-12-04T00:47:53.043Z,99271.48
2018-12-04T00:52:27.110Z,99273.24
2018-12-04T00:57:05.845Z,99285.98
2018-12-04T01:01:19.498Z,99292.27
2018-12-04T01:05:31.274Z,99286.69
2018-12-04T01:09:46.095Z,99289.21
2018-12-04T01:14:09.399Z,99284.73
2018-12-04T01:18:21.258Z,99299.91
2018-12-04T01:22:51.306Z,99311.81
2018-12-04T01:27:02.930Z,99301.86
2018-12-04T01:31:27.748Z,99307.09
2018-12-04T01:35:56.759Z,99314.02
2018-12-04T01:40:11.229Z,99318.64
2018-12-04T01:44:21.984Z,99317.03
2018-12-04T01:48:34.943Z,99329.90
2018-12-04T01:52:50.850Z,99324.33
2018-12-04T01:57:02.510Z,99338.03
2018-12-04T02:01:24.918Z,99341.95
2018-12-04T02:06:04.825Z,99346.70
2018-12-04T02:09:51.333Z,99361.24
2018-12-04T02:14:18.731Z,99365.56
2018-12-04T02:18:41.602Z,99368.20
2018-12-04T02:23:07.011Z,99383.71
2018-12-04T02:27:19.978Z,99387.04
2018-12-04T02:31:37.237Z,99386.89
2018-12-04T02:36:00.508Z,99412.00
2018-12-04T02:40:14.004Z,99421.79
2018-12-04T02:44:26.709Z,99414.80
2018-12-04T02:48:40.349Z,99432.21
2018-12-04T02:52:54.436Z,99437.12
2018-12-04T02:57:17.007Z,99453.02
2018-12-04T03:01:39.588Z,99456.50
2018-12-04T03:05:59.336Z,99461.58
2018-12-04T03:10:43.064Z,99468.70
2018-12-04T03:15:29.087Z,99468.84
2018-12-04T03:20:27.628Z,99486.45
2018-12-04T03:24:38.658Z,99498.64
2018-12-04T03:28:54.962Z,99516.59
2018-12-04T03:33:20.544Z,99524.38
2018-12-04T03:37:28.329Z,99543.05
2018-12-04T03:41:36.107Z,99558.91
2018-12-04T03:45:44.561Z,99568.75
2018-12-04T03:49:52.519Z,99579.66
2018-12-04T03:54:02.287Z,99602.09
2018-12-04T03:58:10.113Z,99611.52
2018-12-04T04:02:17.784Z,99622.30
2018-12-04T04:06:25.385Z,99633.34
2018-12-04T04:10:35.284Z,99634.73
2018-12-04T04:15:25.084Z,99643.30
2018-12-04T04:19:31.053Z,99654.97
2018-12-04T04:23:36.850Z,99665.40
2018-12-04T04:27:42.767Z,99676.02
2018-12-04T04:31:48.857Z,99689.76
2018-12-04T04:35:58.177Z,99700.66
2018-12-04T04:40:05.629Z,99719.08
2018-12-04T04:44:11.564Z,99725.95
2018-12-04T04:48:17.512Z,99733.11
2018-12-04T04:52:23.786Z,99737.45
2018-12-04T04:56:29.912Z,99743.66
2018-12-04T05:00:35.871Z,99752.02
2018-12-04T05:04:42.144Z,99743.56
2018-12-04T05:08:48.007Z,99762.55
2018-12-04T05:12:54.918Z,99769.45
2018-12-04T05:17:01.178Z,99779.97
2018-12-04T05:21:07.249Z,99785.05
2018-12-04T05:25:13.280Z,99785.83
2018-12-04T05:29:19.175Z,99804.88
2018-12-04T05:33:25.245Z,99814.38
2018-12-04T05:37:31.447Z,99821.73
2018-12-04T05:41:37.804Z,99819.70
2018-12-04T05:45:43.620Z,99843.22
2018-12-04T05:49:49.627Z,99848.40
2018-12-04T05:53:55.372Z,99853.83
2018-12-04T05:58:01.316Z,99866.66
2018-12-04T06:02:07.356Z,99878.89
2018-12-04T06:06:13.532Z,99881.74
2018-12-04T06:10:19.504Z,99896.05
2018-12-04T06:14:26.332Z,99898.18
2018-12-04T06:18:32.363Z,99915.69
2018-12-04T06:22:38.693Z,99929.20
2018-12-04T06:26:44.629Z,99946.20
2018-12-04T06:30:51.986Z,99943.47
2018-12-04T06:34:59.247Z,99960.45
2018-12-04T06:39:07.669Z,99979.53
2018-12-04T06:43:14.374Z,99991.09
2018-12-04T06:47:20.563Z,99990.10
2018-12-04T06:51:26.517Z,100001.16
2018-12-04T06:55:32.522Z,99992.41
2018-12-04T06:59:38.504Z,100013.89
2018-12-04T07:03:44.637Z,100024.40
2018-12-04T07:07:53.276Z,100033.66
2018-12-04T07:12:02.453Z,100040.64
2018-12-04T07:16:08.629Z,100051.58
2018-12-04T07:20:15.126Z,100064.50
2018-12-04T07:24:22.265Z,100083.56
2018-12-04T07:28:28.452Z,100104.31
2018-12-04T07:32:38.717Z,100112.68
2018-12-04T07:36:42.329Z,100104.91
2018-12-04T07:40:48.629Z,100106.32
2018-12-04T07:44:54.301Z,100121.66
2018-12-04T07:49:01.343Z,100127.78
2018-12-04T07:53:11.573Z,100147.09
2018-12-04T08:01:40.790Z,100172.47
2018-12-04T08:05:48.589Z,100187.93
2018-12-04T08:09:54.955Z,100197.38
2018-12-04T08:14:02.443Z,100209.39
2018-12-04T08:18:07.973Z,100225.59
2018-12-04T08:22:13.575Z,100229.65
2018-12-04T08:26:19.388Z,100235.53
2018-12-04T08:30:24.964Z,100245.28
2018-12-04T08:34:30.660Z,100259.98
2018-12-04T08:38:36.396Z,100264.67
2018-12-04T08:42:42.078Z,100273.40
2018-12-04T08:46:47.914Z,100276.38
2018-12-04T08:50:53.862Z,100283.11
2018-12-04T08:54:59.519Z,100292.89
2018-12-04T08:59:05.462Z,100307.05
2018-12-04T09:03:12.443Z,100308.64
2018-12-04T09:07:21.567Z,100318.36
2018-12-04T09:11:30.642Z,100324.32
2018-12-04T09:15:38.100Z,100337.14
2018-12-04T09:19:46.349Z,100336.58
2018-12-04T09:23:53.721Z,100356.50
2018-12-04T09:28:00.910Z,100374.47
2018-12-04T09:32:07.168Z,100379.69
2018-12-04T09:36:13.857Z,100387.98
2018-12-04T09:40:19.451Z,100402.50
2018-12-04T09:44:25.383Z,100407.83
2018-12-04T09:48:31.464Z,100420.67
2018-12-04T09:52:39.472Z,100422.48
2018-12-04T09:56:45.317Z,100423.95
2018-12-04T10:00:51.552Z,100440.21
2018-12-04T10:04:58.375Z,100438.84
2018-12-04T10:09:06.506Z,100443.82
2018-12-04T10:13:13.108Z,100452.73
2018-12-04T10:17:21.668Z,100467.27
2018-12-04T10:21:29.299Z,100463.60
2018-12-04T10:25:37.792Z,100459.44
2018-12-04T10:29:45.321Z,100459.17
2018-12-04T10:33:51.310Z,100457.17
2018-12-04T10:38:00.459Z,100476.81
2018-12-04T10:42:06.704Z,100474.80
2018-12-04T10:46:12.539Z,100477.20
2018-12-04T10:50:21.077Z,100490.14
2018-12-04T10:54:27.036Z,100486.91
2018-12-04T10:58:33.300Z,100502.56
2018-12-04T11:02:47.947Z,100502.23
2018-12-04T11:06:54.570Z,100518.73
2018-12-04T11:11:01.060Z,100524.27
2018-12-04T11:15:07.650Z,100538.78
2018-12-04T11:19:14.667Z,100536.48
2018-12-04T11:23:21.668Z,100532.84
2018-12-04T11:27:33.908Z,100541.53
2018-12-04T11:31:43.862Z,100544.68
2018-12-04T11:35:56.318Z,100549.09
2018-12-04T11:40:05.057Z,100547.51
2018-12-04T11:44:11.996Z,100560.23
2018-12-04T11:48:20.419Z,100556.18
2018-12-04T11:52:29.633Z,100569.75
2018-12-04T11:56:36.207Z,100563.20
2018-12-04T12:00:46.466Z,100574.77
2018-12-04T12:04:53.993Z,100576.28
2018-12-04T12:09:04.176Z,100579.03
2018-12-04T12:13:14.419Z,100582.28
2018-12-04T12:17:21.672Z,100590.12
2018-12-04T12:21:28.954Z,100594.09
2018-12-04T12:25:35.121Z,100594.25
2018-12-04T12:29:40.859Z,100604.58
2018-12-04T12:33:46.647Z,100608.41
2018-12-04T12:37:59.621Z,100610.61
2018-12-04T12:42:08.156Z,100620.93
2018-12-04T12:46:17.664Z,100625.62
2018-12-04T12:50:23.843Z,100626.69
2018-12-04T12:54:33.184Z,100631.06
2018-12-04T12:58:50.742Z,100634.55
2018-12-04T13:03:01.054Z,100641.13
2018-12-04T13:07:10.538Z,100648.00
2018-12-04T13:11:17.584Z,100643.92
2018-12-04T13:15:26.369Z,100656.61
2018-12-04T13:24:13.939Z,100673.30
2018-12-04T13:28:21.858Z,100673.91
2018-12-04T13:32:42.200Z,100674.38
2018-12-04T13:41:40.006Z,100694.03
2018-12-04T13:45:47.177Z,100694.73
2018-12-04T13:50:00.124Z,100694.45
2018-12-04T13:54:08.801Z,100693.05
2018-12-04T13:58:15.552Z,100698.96
2018-12-04T14:02:25.104Z,100700.36
2018-12-04T14:06:31.349Z,100709.41
2018-12-04T14:10:43.445Z,100708.98
2018-12-04T14:14:52.423Z,100720.55
2018-12-04T14:19:00.430Z,100726.73
2018-12-04T14:23:06.993Z,100723.55
2018-12-04T14:27:13.694Z,100732.27
2018-12-04T14:31:25.563Z,100738.52
2018-12-04T14:35:34.811Z,100749.00
2018-12-04T14:39:57.881Z,100749.98
2018-12-04T14:44:05.086Z,100764.38
2018-12-04T14:48:14.549Z,100771.46
2018-12-04T14:52:26.362Z,100777.02
2018-12-04T14:56:33.266Z,100782.58
2018-12-04T15:00:41.164Z,100787.31
2018-12-04T15:04:48.280Z,100799.52
2018-12-04T15:08:56.310Z,100802.77
2018-12-04T15:13:02.961Z,100807.03
2018-12-04T15:17:09.417Z,100821.02
2018-12-04T15:21:15.363Z,100821.52
2018-12-04T15:25:21.691Z,100821.69
2018-12-04T15:29:27.416Z,100834.03
2018-12-04T15:33:34.926Z,100849.12
2018-12-04T15:37:42.175Z,100856.27
2018-12-04T15:41:48.961Z,100864.92
2018-12-04T15:45:57.027Z,100863.07
2018-12-04T15:50:06.594Z,100872.96
2018-12-04T15:54:12.788Z,100875.38
2018-12-04T15:58:20.015Z,100882.22
2018-12-04T16:02:26.692Z,100898.87
2018-12-04T16:06:32.419Z,100902.22
2018-12-04T16:10:39.777Z,100908.88
2018-12-04T16:14:45.612Z,100923.24
2018-12-04T16:18:51.576Z,100919.47
2018-12-04T16:22:57.413Z,100926.74
2018-12-04T16:27:03.381Z,100934.81
2018-12-04T16:31:10.650Z,100945.13
2018-12-04T16:35:16.329Z,100942.56
2018-12-04T16:39:23.051Z,100943.97
2018-12-04T16:43:29.245Z,100942.97
2018-12-04T16:47:35.083Z,100946.48
2018-12-04T16:51:40.768Z,100959.98
2018-12-04T16:55:47.478Z,100961.30
2018-12-04T16:59:56.208Z,100967.55
2018-12-04T17:04:02.425Z,100972.64
2018-12-04T17:08:08.189Z,100974.72
2018-12-04T17:12:13.979Z,100978.11
2018-12-04T17:16:19.655Z,100982.97
2018-12-04T17:20:25.366Z,100987.23
2018-12-04T17:24:31.201Z,100990.67
2018-12-04T17:28:36.864Z,100995.63
2018-12-04T17:32:42.647Z,100997.14
2018-12-04T17:36:48.181Z,100993.84
2018-12-04T17:40:54.331Z,101012.55
2018-12-04T17:45:00.102Z,101011.46
2018-12-04T17:49:05.837Z,101025.86
2018-12-04T17:53:11.997Z,101016.34
2018-12-04T17:57:17.814Z,101016.98
2018-12-04T18:01:25.599Z,101010.27
2018-12-04T18:05:33.276Z,101008.22
2018-12-04T18:09:39.731Z,101016.80
2018-12-04T18:13:47.410Z,101015.49
2018-12-04T18:17:53.157Z,101034.23
2018-12-04T18:21:58.937Z,101032.78
2018-12-04T18:26:04.758Z,101038.97
2018-12-04T18:30:10.511Z,101029.70
2018-12-04T18:34:16.278Z,101038.91
2018-12-04T18:38:25.246Z,101044.29
2018-12-04T18:42:30.823Z,101052.16
2018-12-04T18:46:36.476Z,101057.98
2018-12-04T18:50:44.494Z,101057.49
2018-12-04T18:54:53.878Z,101060.73
2018-12-04T18:58:59.747Z,101066.91
2018-12-04T19:03:07.554Z,101065.14
2018-12-04T19:07:14.504Z,101073.01
2018-12-04T19:11:21.551Z,101079.95
2018-12-04T19:15:28.613Z,101075.64
2018-12-04T19:19:35.858Z,101071.00
2018-12-04T19:23:42.787Z,101083.28
2018-12-04T19:27:49.718Z,101094.62
2018-12-04T19:32:02.688Z,101094.86
2018-12-04T19:36:09.302Z,101100.72
2018-12-04T19:40:17.951Z,101106.47
2018-12-04T19:44:24.163Z,101113.67
2018-12-04T19:48:30.023Z,101113.14
2018-12-04T19:52:38.294Z,101115.72
2018-12-04T19:56:44.187Z,101110.88
2018-12-04T20:00:50.171Z,101115.17
2018-12-04T20:04:56.784Z,101126.39
2018-12-04T20:09:05.841Z,101129.17
2018-12-04T20:13:16.754Z,101130.30
2018-12-04T20:17:23.069Z,101140.42
2018-12-04T20:21:34.449Z,101154.06
2018-12-04T20:25:40.801Z,101155.92
2018-12-04T20:29:46.935Z,101157.88
2018-12-04T20:33:57.212Z,101154.88
2018-12-04T20:38:03.734Z,101160.65
2018-12-04T20:42:12.163Z,101155.44
2018-12-04T20:46:19.146Z,101161.03
2018-12-04T20:50:27.808Z,101168.30
2018-12-04T20:54:58.555Z,101179.89
2018-12-04T20:59:07.254Z,101178.96
2018-12-04T21:03:13.447Z,101180.80
2018-12-04T21:07:20.571Z,101188.12
2018-12-04T21:11:31.623Z,101188.98
2018-12-04T21:15:41.392Z,101189.37
2018-12-04T21:19:50.851Z,101196.54
2018-12-04T21:23:58.908Z,101204.98
2018-12-04T21:28:14.778Z,101210.48
2018-12-04T21:32:27.885Z,101209.23
2018-12-04T21:36:45.430Z,101211.77
2018-12-04T21:41:03.519Z,101211.77
2018-12-04T21:45:19.177Z,101213.50
2018-12-04T21:49:27.019Z,101218.09
2018-12-04T21:53:36.245Z,101236.78
2018-12-04T21:57:42.167Z,101242.06
2018-12-04T22:01:50.089Z,101241.59
2018-12-04T22:05:57.213Z,101247.77
2018-12-04T22:10:04.236Z,101254.33
2018-12-04T22:14:10.389Z,101239.02
2018-12-04T22:18:16.347Z,101237.65
2018-12-04T22:22:22.419Z,101242.63
2018-12-04T22:26:29.486Z,101240.50
2018-12-04T22:30:35.714Z,101242.25
2018-12-04T22:34:46.633Z,101243.75
2018-12-04T22:38:52.586Z,101249.92
2018-12-04T22:43:03.661Z,101253.83
2018-12-04T22:47:09.813Z,101254.27
2018-12-04T22:51:21.975Z,101256.27
2018-12-04T22:55:31.163Z,101262.55
2018-12-04T22:59:39.367Z,101263.35
2018-12-04T23:03:53.919Z,101268.69
2018-12-04T23:08:02.154Z,101262.52
2018-12-04T23:12:15.543Z,101258.39
2018-12-04T23:16:26.496Z,101254.58
2018-12-04T23:20:32.573Z,101260.13
2018-12-04T23:24:39.768Z,101248.94
2018-12-04T23:28:45.829Z,101255.22
2018-12-04T23:32:54.294Z,101250.77
2018-12-04T23:37:01.368Z,101247.80
2018-12-04T23:41:07.512Z,101246.52
2018-12-04T23:45:14.796Z,101249.25
2018-12-04T23:49:20.774Z,101255.13
2018-12-04T23:53:26.738Z,101250.60
2018-12-04T23:57:32.743Z,101252.05
